createdAt,value
2023-12-21T00:00:36.030Z,14.13
2023-12-21T00:03:41.077Z,18.42
2023-12-21T00:06:46.837Z,17.35
2023-12-21T00:09:53.277Z,18.23
2023-12-21T00:12:58.895Z,20.35
2023-12-21T00:16:05.323Z,21.10
2023-12-21T00:19:10.903Z,18.37
2023-12-21T00:22:10.863Z,19.80
2023-12-21T00:25:15.820Z,17.93
2023-12-21T00:28:21.136Z,17.77
2023-12-21T00:31:25.733Z,13.62
2023-12-21T00:34:30.999Z,15.78
2023-12-21T00:37:35.894Z,16.10
2023-12-21T00:40:43.256Z,13.08
2023-12-21T00:43:48.758Z,14.58
2023-12-21T00:46:54.485Z,13.93
2023-12-21T00:50:00.747Z,11.80
2023-12-21T00:53:07.396Z,16.35
2023-12-21T00:56:14.272Z,16.02
2023-12-21T00:59:20.216Z,15.28
2023-12-21T01:02:26.278Z,16.62
2023-12-21T01:05:32.956Z,17.82
2023-12-21T01:08:38.046Z,17.98
2023-12-21T01:11:42.895Z,15.90
2023-12-21T01:14:49.258Z,17.40
2023-12-21T01:17:58.035Z,18.82
2023-12-21T01:21:04.041Z,16.93
2023-12-21T01:24:09.045Z,20.88
2023-12-21T01:27:22.227Z,22.77
2023-12-21T01:30:23.776Z,22.42
2023-12-21T01:33:29.501Z,21.10
2023-12-21T01:36:34.919Z,18.12
2023-12-21T01:39:40.202Z,19.85
2023-12-21T01:42:45.555Z,22.98
2023-12-21T01:45:50.942Z,19.42
2023-12-21T01:48:56.180Z,20.40
2023-12-21T01:52:03.231Z,22.20
2023-12-21T01:55:09.363Z,22.07
2023-12-21T01:58:16.137Z,21.95
2023-12-21T02:01:23.105Z,21.05
2023-12-21T02:04:30.723Z,20.82
2023-12-21T02:07:36.667Z,20.60
2023-12-21T02:10:47.892Z,18.02
2023-12-21T02:13:52.481Z,18.92
2023-12-21T02:17:12.751Z,20.30
2023-12-21T02:20:21.612Z,21.17
2023-12-21T02:23:27.236Z,19.37
2023-12-21T02:26:33.698Z,18.17
2023-12-21T02:29:38.036Z,20.12
2023-12-21T02:32:43.321Z,17.70
2023-12-21T02:35:49.127Z,22.82
2023-12-21T02:38:54.864Z,16.05
2023-12-21T02:42:06.262Z,16.02
2023-12-21T02:45:11.517Z,17.75
2023-12-21T02:48:18.228Z,17.50
2023-12-21T02:51:23.779Z,19.60
2023-12-21T02:54:29.429Z,18.57
2023-12-21T02:57:35.802Z,20.30
2023-12-21T03:00:42.062Z,16.80
2023-12-21T03:03:47.531Z,18.62
2023-12-21T03:06:53.372Z,19.50
2023-12-21T03:09:59.068Z,18.45
2023-12-21T03:13:05.465Z,20.80
2023-12-21T03:16:12.499Z,16.87
2023-12-21T03:19:18.692Z,18.07
2023-12-21T03:22:25.369Z,20.15
2023-12-21T03:25:31.147Z,32.42
2023-12-21T03:28:36.088Z,32.30
2023-12-21T03:31:42.245Z,24.72
2023-12-21T03:34:48.515Z,25.15
2023-12-21T03:37:54.954Z,21.77
2023-12-21T03:41:00.058Z,24.77
2023-12-21T03:44:06.633Z,23.98
2023-12-21T03:47:12.584Z,25.32
2023-12-21T03:50:18.563Z,26.93
2023-12-21T03:53:24.329Z,22.85
2023-12-21T03:56:29.880Z,26.20
2023-12-21T03:59:35.780Z,21.35
2023-12-21T04:02:44.094Z,20.62
2023-12-21T04:05:52.826Z,21.93
2023-12-21T04:09:00.836Z,21.20
2023-12-21T04:12:05.901Z,21.85
2023-12-21T04:15:12.750Z,24.80
2023-12-21T04:18:19.252Z,19.45
2023-12-21T04:21:25.558Z,18.75
2023-12-21T04:24:30.861Z,20.92
2023-12-21T04:27:37.370Z,18.10
2023-12-21T04:30:42.845Z,26.85
2023-12-21T04:33:48.438Z,43.63
2023-12-21T04:36:54.084Z,32.53
2023-12-21T04:39:59.790Z,24.57
2023-12-21T04:43:06.511Z,23.15
2023-12-21T04:46:11.918Z,22.58
2023-12-21T04:49:18.801Z,23.75
2023-12-21T04:52:24.359Z,22.62
2023-12-21T04:55:30.765Z,22.30
2023-12-21T04:58:36.670Z,26.62
2023-12-21T05:01:43.175Z,23.47
2023-12-21T05:04:49.808Z,25.40
2023-12-21T05:07:55.276Z,27.27
2023-12-21T05:11:00.282Z,39.73
2023-12-21T05:14:06.183Z,28.12
2023-12-21T05:17:11.783Z,26.95
2023-12-21T05:20:17.335Z,24.67
2023-12-21T05:23:23.651Z,28.10
2023-12-21T05:26:29.844Z,31.97
2023-12-21T05:29:35.365Z,32.88
2023-12-21T05:32:40.384Z,33.98
2023-12-21T05:35:45.407Z,27.98
2023-12-21T05:38:53.193Z,31.93
2023-12-21T05:41:58.054Z,32.67
2023-12-21T05:45:04.666Z,28.77
2023-12-21T05:48:11.297Z,31.37
2023-12-21T05:51:16.672Z,34.23
2023-12-21T05:54:21.823Z,30.40
2023-12-21T05:57:27.583Z,30.08
2023-12-21T06:00:34.775Z,28.27
2023-12-21T06:03:40.184Z,25.50
2023-12-21T06:06:46.631Z,19.05
2023-12-21T06:09:52.486Z,18.62
2023-12-21T06:12:59.127Z,29.98
2023-12-21T06:16:04.127Z,24.00
2023-12-21T06:19:12.474Z,20.88
2023-12-21T06:22:18.377Z,14.93
2023-12-21T06:25:24.457Z,17.30
2023-12-21T06:28:30.483Z,17.85
2023-12-21T06:31:36.492Z,17.10
2023-12-21T06:34:42.608Z,19.15
2023-12-21T06:37:49.593Z,13.65
2023-12-21T06:40:56.218Z,13.18
2023-12-21T06:44:02.409Z,10.00
2023-12-21T06:47:07.467Z,13.53
2023-12-21T06:50:13.262Z,14.65
2023-12-21T06:53:21.014Z,10.23
2023-12-21T06:56:34.114Z,10.85
2023-12-21T06:59:34.472Z,12.47
2023-12-21T07:02:40.224Z,10.18
2023-12-21T07:05:47.982Z,17.12
2023-12-21T07:08:54.495Z,11.25
2023-12-21T07:12:04.473Z,10.45
2023-12-21T07:15:11.866Z,13.60
2023-12-21T07:18:19.607Z,16.25
2023-12-21T07:21:29.699Z,18.77
2023-12-21T07:24:36.819Z,21.60
2023-12-21T07:27:43.296Z,24.77
2023-12-21T07:30:49.425Z,32.93
2023-12-21T07:33:55.749Z,24.82
2023-12-21T07:37:01.392Z,28.07
2023-12-21T07:40:07.113Z,27.85
2023-12-21T07:43:13.272Z,30.27
2023-12-21T07:46:21.609Z,25.23
2023-12-21T07:49:27.051Z,28.02
2023-12-21T07:52:33.833Z,15.80
2023-12-21T07:55:42.798Z,14.70
2023-12-21T07:58:48.816Z,16.42
2023-12-21T08:01:55.024Z,15.08
2023-12-21T08:05:04.729Z,15.28
2023-12-21T08:08:13.720Z,12.53
2023-12-21T08:11:21.368Z,26.42
2023-12-21T08:14:28.004Z,22.17
2023-12-21T08:17:35.754Z,23.20
2023-12-21T08:20:43.950Z,18.57
2023-12-21T08:23:53.330Z,22.67
2023-12-21T08:27:01.963Z,21.23
2023-12-21T08:30:12.086Z,20.55
2023-12-21T08:33:17.899Z,36.17
2023-12-21T08:36:25.481Z,24.95
2023-12-21T08:39:36.072Z,21.45
2023-12-21T08:42:42.112Z,26.23
2023-12-21T08:45:48.572Z,27.95
2023-12-21T08:48:53.690Z,18.73
2023-12-21T08:52:01.144Z,24.95
2023-12-21T08:55:08.903Z,31.07
2023-12-21T08:58:16.672Z,27.32
2023-12-21T09:01:22.770Z,30.68
2023-12-21T09:04:28.524Z,34.85
2023-12-21T09:07:33.469Z,31.20
2023-12-21T09:10:40.333Z,33.45
2023-12-21T09:13:47.148Z,35.20
2023-12-21T09:16:52.449Z,29.00
2023-12-21T09:24:06.744Z,33.15
2023-12-21T09:27:43.937Z,47.10
2023-12-21T09:30:52.837Z,36.83
2023-12-21T09:34:04.674Z,42.88
2023-12-21T09:37:14.811Z,38.60
2023-12-21T09:40:26.114Z,42.33
2023-12-21T09:43:35.671Z,56.92
2023-12-21T09:46:45.811Z,37.10
2023-12-21T09:49:52.437Z,42.75
2023-12-21T09:52:59.252Z,37.25
2023-12-21T09:56:28.399Z,42.65
2023-12-21T09:59:25.872Z,29.82
2023-12-21T10:02:40.422Z,36.33
2023-12-21T10:05:49.399Z,33.78
2023-12-21T10:08:56.072Z,43.13
2023-12-21T10:12:02.472Z,46.98
2023-12-21T10:15:14.333Z,40.83
2023-12-21T10:18:24.590Z,44.00
2023-12-21T10:21:32.005Z,46.05
2023-12-21T10:24:41.356Z,41.80
2023-12-21T10:27:49.159Z,54.30
2023-12-21T10:31:02.371Z,39.35
2023-12-21T10:34:22.093Z,39.45
2023-12-21T10:37:40.812Z,40.52
2023-12-21T10:40:50.628Z,47.45
2023-12-21T10:44:03.140Z,36.03
2023-12-21T10:47:27.174Z,44.05
2023-12-21T10:50:38.230Z,39.40
2023-12-21T10:53:46.317Z,46.30
2023-12-21T10:56:56.264Z,41.48
2023-12-21T11:00:01.757Z,48.87
2023-12-21T11:03:17.146Z,47.60
2023-12-21T11:06:24.580Z,45.65
2023-12-21T11:09:32.596Z,49.03
2023-12-21T11:12:33.264Z,45.92
2023-12-21T11:15:42.760Z,54.95
2023-12-21T11:18:52.512Z,52.33
2023-12-21T11:22:01.305Z,54.53
2023-12-21T11:25:26.637Z,58.05
2023-12-21T11:28:49.667Z,53.68
2023-12-21T11:31:59.898Z,53.73
2023-12-21T11:35:25.841Z,55.15
2023-12-21T11:38:41.241Z,57.90
2023-12-21T11:41:52.613Z,59.38
2023-12-21T11:45:04.550Z,54.10
2023-12-21T11:48:14.938Z,60.10
2023-12-21T11:51:29.572Z,60.08
2023-12-21T11:54:39.908Z,60.20
2023-12-21T11:57:51.000Z,51.18
2023-12-21T12:01:01.913Z,54.70
2023-12-21T12:04:11.984Z,70.75
2023-12-21T12:07:22.059Z,67.42
2023-12-21T12:10:29.941Z,65.00
2023-12-21T12:13:38.502Z,64.40
2023-12-21T12:16:46.531Z,60.65
2023-12-21T12:19:44.233Z,57.93
2023-12-21T12:22:51.140Z,64.47
2023-12-21T12:26:00.268Z,75.97
2023-12-21T12:29:08.128Z,50.27
2023-12-21T12:32:19.130Z,48.30
2023-12-21T12:35:29.756Z,62.40
2023-12-21T12:38:37.772Z,53.85
2023-12-21T12:41:43.735Z,58.13
2023-12-21T12:44:52.235Z,60.88
2023-12-21T12:48:04.603Z,53.52
2023-12-21T12:51:18.015Z,52.25
2023-12-21T12:54:25.776Z,40.03
2023-12-21T12:57:31.305Z,63.13
2023-12-21T13:00:38.312Z,56.45
2023-12-21T13:03:51.481Z,46.08
2023-12-21T13:06:59.580Z,57.10
2023-12-21T13:10:09.786Z,51.50
2023-12-21T13:13:14.047Z,57.95
2023-12-21T13:20:28.590Z,71.60
2023-12-21T13:24:45.907Z,64.03
2023-12-21T13:28:03.120Z,63.65
2023-12-21T13:30:59.460Z,63.55
2023-12-21T13:34:06.282Z,65.87
2023-12-21T13:37:13.505Z,69.42
2023-12-21T13:40:21.731Z,88.33
2023-12-21T13:43:27.678Z,63.52
2023-12-21T13:46:33.720Z,64.30
2023-12-21T13:49:39.996Z,59.42
2023-12-21T13:52:46.750Z,71.42
2023-12-21T13:55:54.527Z,59.58
2023-12-21T13:59:01.220Z,79.53
2023-12-21T14:02:07.389Z,53.90
2023-12-21T14:05:13.876Z,66.60
2023-12-21T14:08:20.660Z,59.98
2023-12-21T14:11:25.612Z,72.70
2023-12-21T14:14:31.289Z,63.45
2023-12-21T14:17:37.879Z,88.82
2023-12-21T14:20:43.461Z,96.28
2023-12-21T14:23:48.921Z,64.25
2023-12-21T14:26:55.202Z,66.85
2023-12-21T14:30:01.115Z,57.67
2023-12-21T14:33:06.994Z,61.13
2023-12-21T14:36:12.969Z,69.77
2023-12-21T14:39:19.325Z,72.62
2023-12-21T14:42:24.247Z,60.35
2023-12-21T14:45:29.333Z,61.58
2023-12-21T14:48:37.104Z,59.25
2023-12-21T14:51:42.113Z,69.17
2023-12-21T14:54:47.295Z,74.47
2023-12-21T14:57:55.451Z,80.87
2023-12-21T15:01:01.830Z,78.40
2023-12-21T15:04:08.482Z,65.37
2023-12-21T15:07:14.561Z,71.65
2023-12-21T15:10:21.924Z,72.75
2023-12-21T15:13:27.863Z,75.85
2023-12-21T15:16:35.418Z,82.95
2023-12-21T15:19:41.549Z,63.17
2023-12-21T15:22:47.999Z,61.50
2023-12-21T15:25:54.473Z,77.00
2023-12-21T15:29:01.492Z,70.80
2023-12-21T15:32:07.478Z,55.58
2023-12-21T15:35:14.200Z,56.88
2023-12-21T15:38:19.642Z,88.07
2023-12-21T15:41:35.015Z,83.55
2023-12-21T15:44:39.613Z,101.22
2023-12-21T15:47:47.967Z,62.75
2023-12-21T15:50:56.228Z,65.83
2023-12-21T15:54:01.277Z,65.45
2023-12-21T15:57:07.073Z,63.92
2023-12-21T16:00:14.143Z,65.22
2023-12-21T16:03:19.781Z,81.37
2023-12-21T16:06:24.926Z,73.22
2023-12-21T16:09:30.384Z,70.37
2023-12-21T16:12:36.476Z,55.43
2023-12-21T16:15:43.003Z,59.88
2023-12-21T16:18:48.441Z,60.03
2023-12-21T16:21:54.704Z,73.92
2023-12-21T16:25:01.365Z,68.05
2023-12-21T16:28:09.439Z,61.33
2023-12-21T16:31:16.212Z,60.30
2023-12-21T16:34:23.183Z,41.20
2023-12-21T16:37:29.474Z,53.20
2023-12-21T16:40:35.765Z,69.40
2023-12-21T16:43:42.336Z,77.25
2023-12-21T16:46:48.182Z,96.45
2023-12-21T16:49:54.989Z,123.97
2023-12-21T16:53:02.572Z,94.20
2023-12-21T16:56:08.115Z,130.75
2023-12-21T16:59:13.710Z,116.25
2023-12-21T17:02:19.445Z,169.55
2023-12-21T17:05:25.407Z,136.30
2023-12-21T17:08:32.827Z,168.62
2023-12-21T17:11:38.602Z,173.95
2023-12-21T17:14:44.476Z,153.38
2023-12-21T17:17:51.332Z,164.40
2023-12-21T17:20:57.051Z,133.32
2023-12-21T17:24:04.076Z,144.62
2023-12-21T17:27:10.108Z,150.60
2023-12-21T17:30:16.180Z,142.47
2023-12-21T17:33:22.667Z,157.78
2023-12-21T17:36:28.144Z,137.70
2023-12-21T17:39:33.291Z,127.62
2023-12-21T17:42:38.911Z,146.40
2023-12-21T17:45:44.297Z,139.52
2023-12-21T17:48:51.280Z,136.10
2023-12-21T17:51:57.171Z,159.05
2023-12-21T17:55:04.535Z,143.10
2023-12-21T17:58:09.924Z,155.65
2023-12-21T18:01:16.795Z,159.57
2023-12-21T18:04:22.855Z,136.65
2023-12-21T18:07:29.222Z,128.35
2023-12-21T18:10:36.411Z,122.85
2023-12-21T18:13:44.051Z,109.20
2023-12-21T18:16:50.331Z,87.00
2023-12-21T18:19:57.035Z,81.00
2023-12-21T18:23:03.332Z,83.75
2023-12-21T18:26:08.654Z,69.45
2023-12-21T18:29:15.182Z,60.92
2023-12-21T18:32:22.307Z,65.75
2023-12-21T18:35:27.602Z,59.75
2023-12-21T18:38:33.076Z,57.95
2023-12-21T18:41:38.828Z,61.02
2023-12-21T18:44:43.949Z,55.73
2023-12-21T18:47:50.050Z,53.17
2023-12-21T18:50:55.498Z,49.65
2023-12-21T18:54:01.247Z,54.98
2023-12-21T18:57:06.639Z,40.85
2023-12-21T19:00:13.173Z,43.08
2023-12-21T19:03:19.516Z,46.35
2023-12-21T19:06:28.109Z,56.50
2023-12-21T19:09:35.062Z,46.80
2023-12-21T19:12:41.304Z,46.48
2023-12-21T19:15:50.067Z,45.85
2023-12-21T19:18:57.096Z,54.38
2023-12-21T19:22:02.421Z,51.83
2023-12-21T19:25:10.586Z,52.30
2023-12-21T19:28:16.066Z,50.03
2023-12-21T19:31:24.086Z,52.35
2023-12-21T19:34:30.630Z,53.05
2023-12-21T19:37:36.728Z,46.80
2023-12-21T19:40:43.318Z,46.23
2023-12-21T19:43:49.878Z,69.00
2023-12-21T19:46:57.051Z,59.00
2023-12-21T19:50:02.439Z,74.40
2023-12-21T19:53:11.837Z,49.55
2023-12-21T19:56:19.203Z,57.23
2023-12-21T19:59:26.272Z,60.73
2023-12-21T20:02:32.302Z,46.77
2023-12-21T20:05:37.246Z,59.53
2023-12-21T20:08:42.420Z,48.02
2023-12-21T20:11:47.974Z,45.30
2023-12-21T20:14:53.329Z,45.95
2023-12-21T20:17:59.927Z,39.73
2023-12-21T20:21:06.080Z,39.15
2023-12-21T20:24:12.102Z,45.80
2023-12-21T20:27:17.229Z,46.40
2023-12-21T20:30:23.791Z,46.48
2023-12-21T20:33:29.996Z,55.65
2023-12-21T20:36:36.043Z,58.55
2023-12-21T20:39:43.593Z,48.50
2023-12-21T20:42:49.125Z,51.25
2023-12-21T20:45:55.552Z,52.53
2023-12-21T20:49:01.370Z,56.02
2023-12-21T20:52:07.776Z,59.55
2023-12-21T20:55:12.659Z,63.85
2023-12-21T20:58:18.212Z,70.97
2023-12-21T21:01:24.656Z,70.70
2023-12-21T21:04:30.021Z,60.80
2023-12-21T21:07:35.479Z,71.10
2023-12-21T21:10:40.305Z,56.28
2023-12-21T21:13:44.948Z,68.00
2023-12-21T21:16:51.341Z,68.10
2023-12-21T21:19:57.724Z,67.08
2023-12-21T21:23:02.728Z,61.18
2023-12-21T21:26:08.067Z,62.98
2023-12-21T21:29:13.501Z,58.60
2023-12-21T21:32:20.103Z,52.62
2023-12-21T21:35:26.292Z,51.95
2023-12-21T21:38:32.797Z,47.62
2023-12-21T21:41:38.943Z,53.70
2023-12-21T21:44:44.568Z,50.28
2023-12-21T21:47:51.110Z,55.38
2023-12-21T21:50:57.590Z,51.53
2023-12-21T21:54:02.652Z,60.00
2023-12-21T21:57:08.385Z,48.00
2023-12-21T22:00:14.373Z,53.70
2023-12-21T22:03:19.850Z,56.53
2023-12-21T22:06:25.160Z,56.25
2023-12-21T22:09:30.452Z,45.23
2023-12-21T22:12:36.682Z,50.35
2023-12-21T22:15:41.991Z,53.95
2023-12-21T22:18:48.225Z,54.33
2023-12-21T22:21:55.010Z,55.90
2023-12-21T22:25:00.925Z,53.23
2023-12-21T22:28:06.549Z,56.33
2023-12-21T22:31:12.427Z,55.48
2023-12-21T22:34:17.745Z,56.75
2023-12-21T22:37:23.408Z,54.42
2023-12-21T22:40:29.820Z,56.58
2023-12-21T22:43:42.444Z,47.20
2023-12-21T22:46:43.754Z,48.48
2023-12-21T22:49:50.567Z,52.75
2023-12-21T22:52:57.471Z,45.43
2023-12-21T22:56:03.090Z,47.40
2023-12-21T22:59:08.749Z,52.60
2023-12-21T23:02:14.738Z,60.40
2023-12-21T23:05:19.940Z,73.10
2023-12-21T23:08:26.731Z,78.85
2023-12-21T23:11:33.299Z,78.75
2023-12-21T23:14:39.120Z,84.72
2023-12-21T23:17:45.684Z,77.08
2023-12-21T23:20:52.092Z,80.53
2023-12-21T23:23:57.918Z,65.78
2023-12-21T23:27:04.412Z,55.63
2023-12-21T23:30:10.556Z,75.60
2023-12-21T23:33:18.379Z,77.08
2023-12-21T23:36:24.066Z,77.87
2023-12-21T23:39:30.177Z,86.97
2023-12-21T23:42:36.231Z,65.62
2023-12-21T23:45:41.567Z,74.37
2023-12-21T23:48:47.277Z,69.32
2023-12-21T23:51:53.684Z,91.17
2023-12-21T23:54:59.262Z,85.70
2023-12-21T23:58:04.749Z,94.32
